Time;durP1;ratioP1;P1;durP2;ratioP2;P2;SDS_P1;SDS_P2;PMS_P1;PMS_P2;Temp;Humidity;BMP_temperature;BMP_pressure;BME280_temperature;BME280_humidity;BME280_pressure;Samples;Min_cycle;Max_cycle;Signal;HPM_P1;HPM_P2
2022/09/25 00:00:53;;;;;;;18.43;14.50;;;20.00;59.90;;;;;;5015287;28;20463;-88
2022/09/25 00:03:21;;;;;;;18.17;13.43;;;20.00;60.10;;;;;;5025904;28;20469;-88
2022/09/25 00:05:48;;;;;;;15.33;13.57;;;20.00;60.20;;;;;;5042757;28;20465;-89
2022/09/25 00:08:18;;;;;;;18.13;12.63;;;20.00;59.80;;;;;;5016812;28;20456;-88
2022/09/25 00:10:48;;;;;;;17.40;13.00;;;20.00;59.60;;;;;;5047657;28;20456;-88
2022/09/25 00:13:15;;;;;;;17.53;12.77;;;20.00;59.90;;;;;;5027162;28;20465;-88
2022/09/25 00:15:47;;;;;;;15.53;12.40;;;19.90;59.90;;;;;;5024250;28;20482;-88
2022/09/25 00:18:14;;;;;;;14.93;13.40;;;19.90;60.10;;;;;;5040065;28;20464;-89
2022/09/25 00:20:40;;;;;;;14.97;12.30;;;19.90;60.10;;;;;;5013166;28;20544;-87
2022/09/25 00:23:07;;;;;;;18.40;13.37;;;20.00;60.00;;;;;;5040204;28;20469;-88
2022/09/25 00:25:36;;;;;;;16.97;13.00;;;20.00;60.00;;;;;;5030922;28;20468;-89
2022/09/25 00:28:03;;;;;;;14.80;13.30;;;20.00;60.00;;;;;;5043289;28;20562;-88
2022/09/25 00:30:30;;;;;;;16.13;11.97;;;20.00;59.90;;;;;;5042502;28;20457;-92
2022/09/25 00:32:57;;;;;;;16.03;12.83;;;19.90;59.80;;;;;;5030121;28;20541;-88
2022/09/25 00:35:24;;;;;;;17.17;12.37;;;19.90;59.90;;;;;;5043252;28;21010;-88
2022/09/25 00:37:51;;;;;;;17.40;13.80;;;19.90;60.10;;;;;;5030833;28;20448;-88
2022/09/25 00:40:18;;;;;;;14.80;12.40;;;19.90;60.00;;;;;;5023552;28;20525;-87
2022/09/25 00:42:46;;;;;;;14.80;11.87;;;19.90;60.00;;;;;;5036883;28;20976;-90
2022/09/25 00:45:18;;;;;;;15.43;12.60;;;19.90;59.70;;;;;;5015324;28;20460;-89
2022/09/25 00:47:51;;;;;;;16.17;12.80;;;19.90;59.60;;;;;;5046463;28;20520;-89
2022/09/25 00:50:27;;;;;;;13.33;11.93;;;19.90;59.80;;;;;;5038036;28;20468;-89
2022/09/25 00:52:57;;;;;;;16.00;12.50;;;19.90;59.90;;;;;;5025268;28;20457;-88
2022/09/25 00:55:24;;;;;;;13.10;11.30;;;19.90;59.80;;;;;;5038848;28;20434;-88
2022/09/25 00:57:55;;;;;;;12.87;11.47;;;19.80;59.60;;;;;;5060067;28;20454;-89
2022/09/25 01:00:23;;;;;;;15.03;12.10;;;19.80;59.70;;;;;;5039715;28;20484;-89
2022/09/25 01:02:53;;;;;;;13.30;11.90;;;19.80;59.80;;;;;;5041687;28;20495;-90
2022/09/25 01:05:24;;;;;;;15.07;11.87;;;19.80;59.90;;;;;;5038800;28;20448;-88
2022/09/25 01:07:54;;;;;;;14.67;11.63;;;19.80;59.80;;;;;;5037083;28;20572;-88
2022/09/25 01:10:22;;;;;;;12.30;11.07;;;19.80;59.50;;;;;;5042558;28;20444;-87
2022/09/25 01:12:51;;;;;;;15.97;13.27;;;19.70;59.40;;;;;;5010222;28;20461;-87
2022/09/25 01:15:31;;;;;;;14.40;11.90;;;19.70;59.70;;;;;;5036823;28;20456;-88
2022/09/25 01:18:05;;;;;;;18.60;12.37;;;19.70;60.10;;;;;;5055990;28;20933;-90
2022/09/25 01:20:56;;;;;;;14.20;11.57;;;19.70;60.40;;;;;;5022821;28;20447;-88
2022/09/25 01:23:38;;;;;;;15.47;13.33;;;19.70;60.40;;;;;;5002172;28;20552;-88
2022/09/25 01:26:23;;;;;;;15.70;13.10;;;19.70;60.40;;;;;;5039913;28;21257;-89
2022/09/25 01:29:06;;;;;;;17.37;13.30;;;19.70;60.50;;;;;;5022282;28;20843;-90
2022/09/25 01:31:38;;;;;;;15.53;11.77;;;19.70;60.50;;;;;;5029334;28;20452;-88
2022/09/25 01:34:14;;;;;;;13.53;12.13;;;19.70;60.40;;;;;;5027206;28;20476;-89
2022/09/25 01:36:48;;;;;;;14.73;11.70;;;19.70;60.40;;;;;;5037104;28;20539;-91
2022/09/25 01:39:21;;;;;;;15.63;12.10;;;19.60;60.50;;;;;;5038705;28;20886;-89
2022/09/25 01:41:54;;;;;;;20.27;13.10;;;19.60;60.60;;;;;;5024747;28;20446;-88
2022/09/25 01:44:28;;;;;;;13.80;12.00;;;19.60;60.80;;;;;;5034809;28;20472;-88
2022/09/25 01:47:02;;;;;;;13.60;12.17;;;19.60;60.80;;;;;;5036795;28;20457;-88
2022/09/25 01:49:33;;;;;;;14.00;11.83;;;19.60;61.00;;;;;;5026956;28;20848;-87
2022/09/25 01:52:02;;;;;;;16.13;12.83;;;19.60;61.20;;;;;;5023976;28;20468;-87
2022/09/25 01:54:35;;;;;;;15.73;13.00;;;19.60;61.30;;;;;;5026505;28;20469;-88
2022/09/25 01:57:08;;;;;;;15.13;11.67;;;19.60;61.10;;;;;;5021387;28;20473;-88
2022/09/25 01:59:40;;;;;;;19.80;13.30;;;19.60;61.00;;;;;;5054036;28;20457;-89
2022/09/25 02:02:12;;;;;;;14.80;13.20;;;19.60;61.60;;;;;;5036863;28;20451;-88
2022/09/25 02:04:42;;;;;;;16.17;12.90;;;19.60;60.80;;;;;;5021974;28;20461;-89
2022/09/25 02:07:15;;;;;;;13.40;11.63;;;19.60;60.60;;;;;;5043977;28;20469;-88
2022/09/25 02:09:47;;;;;;;12.87;11.47;;;19.60;60.70;;;;;;5005497;28;20474;-89
2022/09/25 02:12:17;;;;;;;12.87;11.10;;;19.60;60.40;;;;;;5020327;28;20454;-88
2022/09/25 02:14:51;;;;;;;17.57;10.97;;;19.60;60.50;;;;;;5042698;28;20979;-89
2022/09/25 02:22:52;;;;;;;16.77;12.90;;;19.60;60.60;;;;;;5028054;28;20806;-89
2022/09/25 02:25:29;;;;;;;15.70;12.37;;;19.60;60.60;;;;;;5036508;28;20444;-88
2022/09/25 02:27:57;;;;;;;14.30;11.83;;;19.50;60.70;;;;;;5042126;28;20453;-90
2022/09/25 02:30:25;;;;;;;12.93;11.50;;;19.50;60.80;;;;;;5009914;28;20460;-88
2022/09/25 02:32:53;;;;;;;13.67;11.83;;;19.50;60.90;;;;;;5054978;28;20988;-90
2022/09/25 02:35:20;;;;;;;13.30;11.50;;;19.50;60.70;;;;;;5035382;28;20480;-88
2022/09/25 02:37:47;;;;;;;17.90;14.23;;;19.50;60.60;;;;;;5039651;28;20464;-88
2022/09/25 02:40:15;;;;;;;13.10;11.73;;;19.50;60.50;;;;;;5056378;28;20936;-88
2022/09/25 02:42:49;;;;;;;13.97;11.97;;;19.50;60.70;;;;;;5018300;28;20996;-88
2022/09/25 02:45:29;;;;;;;14.40;12.27;;;19.50;60.80;;;;;;5038027;28;20473;-88
2022/09/25 02:48:09;;;;;;;15.47;12.47;;;19.50;60.80;;;;;;5024775;28;20518;-88
2022/09/25 02:50:42;;;;;;;13.40;11.97;;;19.50;60.80;;;;;;5053083;28;20945;-88
2022/09/25 02:53:16;;;;;;;14.63;12.63;;;19.50;60.80;;;;;;5036827;28;20452;-88
2022/09/25 02:55:48;;;;;;;13.40;12.03;;;19.50;60.90;;;;;;5055871;28;20524;-91
2022/09/25 02:58:21;;;;;;;18.40;12.17;;;19.50;60.80;;;;;;5056911;28;20510;-86
2022/09/25 03:00:51;;;;;;;11.40;10.20;;;19.50;60.50;;;;;;5042614;28;20839;-88
2022/09/25 03:03:21;;;;;;;15.70;12.40;;;19.40;60.50;;;;;;5043556;28;20475;-88
2022/09/25 03:05:49;;;;;;;13.03;11.17;;;19.40;60.40;;;;;;5040962;28;20456;-88
2022/09/25 03:11:01;;;;;;;13.50;12.10;;;19.40;60.50;;;;;;5025925;28;20456;-89
2022/09/25 03:13:30;;;;;;;14.30;12.90;;;19.40;60.60;;;;;;5010083;28;20839;-88
2022/09/25 03:16:01;;;;;;;14.43;12.60;;;19.40;60.70;;;;;;5041420;28;20475;-88
2022/09/25 03:18:30;;;;;;;12.80;11.50;;;19.40;60.80;;;;;;5060159;28;21166;-91
2022/09/25 03:20:57;;;;;;;12.73;11.40;;;19.40;60.50;;;;;;5030785;28;20449;-90
2022/09/25 03:23:24;;;;;;;13.67;12.27;;;19.40;60.20;;;;;;5056343;28;20467;-89
2022/09/25 03:25:54;;;;;;;13.33;11.93;;;19.30;60.20;;;;;;5024952;28;20775;-88
2022/09/25 03:28:21;;;;;;;14.00;12.50;;;19.30;60.40;;;;;;5026845;28;20495;-91
2022/09/25 03:31:02;;;;;;;14.30;12.80;;;19.30;60.80;;;;;;5031554;28;20825;-88
2022/09/25 03:33:33;;;;;;;17.80;15.10;;;19.40;60.90;;;;;;5014963;28;20477;-88
2022/09/25 03:36:05;;;;;;;17.03;13.63;;;19.40;61.10;;;;;;5028283;28;20445;-88
2022/09/25 03:38:33;;;;;;;19.10;15.13;;;19.40;61.40;;;;;;5058655;28;21015;-88
2022/09/25 03:40:59;;;;;;;18.40;13.03;;;19.30;61.60;;;;;;5032252;28;20456;-90
2022/09/25 03:43:26;;;;;;;16.83;14.07;;;19.30;61.50;;;;;;5024398;28;20464;-89
2022/09/25 03:45:53;;;;;;;18.47;14.50;;;19.30;61.60;;;;;;5055254;28;20453;-90
2022/09/25 03:48:22;;;;;;;19.90;13.63;;;19.30;61.70;;;;;;5039559;28;20452;-89
2022/09/25 03:50:49;;;;;;;19.17;13.73;;;19.30;61.90;;;;;;5042873;28;20452;-89
2022/09/25 03:53:17;;;;;;;18.87;14.20;;;19.30;61.90;;;;;;5029696;28;20596;-88
2022/09/25 03:55:47;;;;;;;16.33;13.60;;;19.30;62.10;;;;;;5038352;28;20437;-89
2022/09/25 03:58:15;;;;;;;21.47;14.53;;;19.10;62.60;;;;;;5042043;28;20441;-89
2022/09/25 04:00:42;;;;;;;17.30;14.50;;;19.10;62.60;;;;;;5038748;28;20449;-88
2022/09/25 04:03:09;;;;;;;16.27;13.57;;;19.10;62.50;;;;;;5047988;28;20512;-90
2022/09/25 04:05:37;;;;;;;18.00;13.77;;;19.10;62.50;;;;;;5029050;28;21074;-89
2022/09/25 04:08:05;;;;;;;17.80;13.27;;;19.10;62.50;;;;;;5061928;28;20468;-91
2022/09/25 04:10:37;;;;;;;19.73;13.87;;;19.20;62.70;;;;;;5011378;28;20454;-88
2022/09/25 04:13:05;;;;;;;18.23;13.70;;;19.20;62.50;;;;;;5038462;28;21004;-91
2022/09/25 04:15:33;;;;;;;18.83;13.30;;;19.30;62.40;;;;;;5024101;28;20441;-89
2022/09/25 04:18:00;;;;;;;19.10;13.50;;;19.20;62.20;;;;;;5024868;28;20460;-88
2022/09/25 04:20:27;;;;;;;20.00;13.87;;;19.00;63.00;;;;;;5059390;28;20452;-89
2022/09/25 04:22:56;;;;;;;15.63;13.10;;;18.90;63.10;;;;;;5027805;28;20853;-88
2022/09/25 04:25:24;;;;;;;19.60;14.30;;;19.00;63.20;;;;;;5030373;28;20449;-89
2022/09/25 04:27:52;;;;;;;21.47;13.90;;;19.00;63.20;;;;;;5053921;28;20569;-90
2022/09/25 04:30:20;;;;;;;20.00;14.97;;;18.90;62.90;;;;;;5010317;28;20456;-88
2022/09/25 04:35:31;;;;;;;23.20;15.13;;;19.10;62.70;;;;;;5009972;28;20472;-88
2022/09/25 04:38:00;;;;;;;20.23;14.30;;;19.10;62.60;;;;;;5024379;28;20449;-88
2022/09/25 04:40:27;;;;;;;20.60;15.40;;;19.20;62.70;;;;;;5026890;28;20468;-88
2022/09/25 04:42:56;;;;;;;24.23;16.43;;;19.30;62.60;;;;;;5011805;28;20480;-90
2022/09/25 04:45:25;;;;;;;20.00;14.83;;;19.30;62.20;;;;;;5045612;28;20461;-88
2022/09/25 04:47:52;;;;;;;18.87;14.87;;;19.30;62.80;;;;;;5039946;28;20936;-88
2022/09/25 04:50:20;;;;;;;19.50;14.53;;;19.30;62.00;;;;;;5027825;28;20457;-88
2022/09/25 04:52:48;;;;;;;16.87;12.53;;;19.30;62.00;;;;;;5030672;28;20477;-88
2022/09/25 04:55:17;;;;;;;15.47;11.87;;;19.30;61.90;;;;;;5055521;28;20519;-90
2022/09/25 04:57:44;;;;;;;12.80;10.73;;;19.20;61.90;;;;;;5038857;28;20432;-90
2022/09/25 05:00:18;;;;;;;14.23;12.07;;;19.10;62.10;;;;;;5040370;28;20452;-88
2022/09/25 05:02:45;;;;;;;14.63;11.80;;;19.10;62.10;;;;;;5039360;28;20833;-88
2022/09/25 05:05:13;;;;;;;15.80;11.23;;;19.10;61.90;;;;;;5049447;28;20453;-90
2022/09/25 05:07:40;;;;;;;15.10;12.03;;;19.10;61.70;;;;;;5042510;28;20468;-88
2022/09/25 05:10:08;;;;;;;16.60;11.77;;;19.10;62.00;;;;;;5032263;28;20432;-89
2022/09/25 05:12:36;;;;;;;12.40;10.70;;;19.00;62.10;;;;;;5041715;28;20465;-88
2022/09/25 05:15:04;;;;;;;16.77;11.07;;;19.10;62.20;;;;;;5039511;28;21419;-87
2022/09/25 05:17:31;;;;;;;11.50;9.97;;;19.10;62.10;;;;;;5019467;28;20449;-89
2022/09/25 05:19:58;;;;;;;11.93;10.63;;;19.10;62.10;;;;;;5052421;28;20462;-87
2022/09/25 05:22:25;;;;;;;12.23;10.93;;;19.20;61.90;;;;;;5009137;28;20454;-88
2022/09/25 05:24:52;;;;;;;12.47;11.17;;;19.20;62.00;;;;;;5035882;28;20828;-88
2022/09/25 05:27:21;;;;;;;12.90;10.73;;;19.20;61.90;;;;;;5036244;28;21150;-89
2022/09/25 05:29:50;;;;;;;13.40;11.10;;;19.20;62.20;;;;;;5033126;28;20457;-88
2022/09/25 05:32:17;;;;;;;14.30;12.20;;;19.20;62.50;;;;;;5033390;28;20537;-88
2022/09/25 05:34:45;;;;;;;12.70;10.10;;;19.20;62.10;;;;;;5032972;28;20456;-88
2022/09/25 05:37:12;;;;;;;14.70;11.20;;;19.20;62.00;;;;;;5024501;28;20465;-88
2022/09/25 05:39:40;;;;;;;12.30;10.80;;;19.30;62.10;;;;;;5021044;28;20547;-88
2022/09/25 05:42:07;;;;;;;12.17;10.97;;;19.30;62.00;;;;;;5025941;28;20451;-88
2022/09/25 05:44:34;;;;;;;12.37;10.07;;;19.30;62.00;;;;;;5035115;28;20845;-89
2022/09/25 05:47:03;;;;;;;12.03;10.53;;;19.20;61.90;;;;;;5032974;28;20470;-88
2022/09/25 05:49:30;;;;;;;14.07;11.07;;;19.30;62.10;;;;;;5035405;28;20980;-90
2022/09/25 05:51:57;;;;;;;12.33;9.50;;;19.20;62.00;;;;;;5051652;28;20465;-88
2022/09/25 05:54:24;;;;;;;11.47;10.00;;;19.20;62.00;;;;;;5034954;28;20465;-87
2022/09/25 05:56:50;;;;;;;12.77;9.40;;;19.20;61.90;;;;;;5033162;28;20441;-89
2022/09/25 05:59:17;;;;;;;10.73;9.63;;;19.20;61.70;;;;;;5025760;28;20460;-88
2022/09/25 06:01:44;;;;;;;11.30;10.00;;;19.20;61.90;;;;;;5031960;28;20441;-89
2022/09/25 06:04:13;;;;;;;12.50;9.87;;;19.20;61.90;;;;;;5042734;28;20479;-87
2022/09/25 06:06:40;;;;;;;15.60;10.17;;;19.20;61.90;;;;;;5021077;28;20967;-87
2022/09/25 06:09:07;;;;;;;10.23;9.10;;;19.00;62.50;;;;;;5054828;28;20485;-88
2022/09/25 06:11:34;;;;;;;12.20;9.73;;;19.00;62.70;;;;;;5049492;28;20811;-88
2022/09/25 06:14:02;;;;;;;11.07;9.90;;;19.00;62.80;;;;;;5031882;28;20474;-88
2022/09/25 06:16:29;;;;;;;12.27;10.33;;;19.10;62.60;;;;;;5040111;28;20445;-89
2022/09/25 06:18:56;;;;;;;17.13;11.40;;;19.10;62.50;;;;;;5040005;28;20453;-88
2022/09/25 06:21:25;;;;;;;36.23;18.07;;;19.20;62.50;;;;;;5050802;28;20952;-88
2022/09/25 06:23:53;;;;;;;23.80;13.57;;;19.20;62.50;;;;;;5009160;28;20465;-87
2022/09/25 06:26:20;;;;;;;24.53;14.17;;;19.00;62.60;;;;;;5019352;28;20493;-88
2022/09/25 06:28:47;;;;;;;38.73;19.60;;;19.00;62.80;;;;;;5022504;28;20472;-88
2022/09/25 06:31:13;;;;;;;26.93;16.20;;;19.00;62.70;;;;;;5037431;28;21117;-87
2022/09/25 06:33:40;;;;;;;20.97;12.80;;;19.10;62.90;;;;;;5053404;28;20476;-88
2022/09/25 06:36:07;;;;;;;15.27;11.13;;;19.00;62.70;;;;;;5022507;28;20460;-89
2022/09/25 06:38:36;;;;;;;17.87;12.87;;;19.00;62.80;;;;;;5022701;28;20440;-88
2022/09/25 06:41:03;;;;;;;27.57;14.77;;;18.90;63.00;;;;;;5040832;28;20454;-88
2022/09/25 06:43:30;;;;;;;22.40;15.17;;;18.80;63.50;;;;;;5017763;28;21144;-88
2022/09/25 06:46:01;;;;;;;17.60;12.87;;;18.80;63.70;;;;;;5018956;28;20457;-88
2022/09/25 06:48:28;;;;;;;20.67;12.03;;;18.90;63.40;;;;;;5004879;28;20480;-88
2022/09/25 06:50:57;;;;;;;23.47;15.40;;;18.90;63.30;;;;;;5035664;28;21091;-88
2022/09/25 06:53:25;;;;;;;19.60;13.73;;;19.00;63.20;;;;;;5022723;28;20468;-88
2022/09/25 06:55:56;;;;;;;14.23;12.23;;;19.00;63.50;;;;;;5055527;28;20524;-88
2022/09/25 06:58:25;;;;;;;10.77;9.67;;;19.00;62.70;;;;;;5036364;28;20456;-88
2022/09/25 07:00:54;;;;;;;10.40;9.30;;;19.00;62.70;;;;;;5028131;28;21005;-91
2022/09/25 07:06:09;;;;;;;12.73;11.03;;;19.10;62.50;;;;;;5044008;28;20447;-89
2022/09/25 07:08:37;;;;;;;12.07;10.77;;;19.00;61.80;;;;;;5036868;28;20468;-89
2022/09/25 07:11:06;;;;;;;12.80;11.27;;;18.90;62.20;;;;;;5035286;28;21455;-89
2022/09/25 07:13:35;;;;;;;14.23;11.67;;;18.90;62.70;;;;;;5022383;28;20476;-88
2022/09/25 07:16:04;;;;;;;11.03;9.93;;;19.00;62.60;;;;;;5009911;28;20445;-89
2022/09/25 07:18:32;;;;;;;13.87;11.03;;;19.00;62.10;;;;;;5010778;28;20788;-89
2022/09/25 07:21:02;;;;;;;20.07;14.83;;;19.00;62.10;;;;;;5029184;28;20861;-89
2022/09/25 07:23:30;;;;;;;12.93;10.77;;;18.90;62.00;;;;;;5035143;28;21066;-89
2022/09/25 07:25:58;;;;;;;11.27;10.17;;;19.00;62.10;;;;;;5021673;28;20805;-89
2022/09/25 07:28:26;;;;;;;13.40;11.50;;;19.00;61.80;;;;;;5060440;28;20476;-89
2022/09/25 07:30:53;;;;;;;14.00;11.43;;;19.00;61.80;;;;;;5056302;28;20556;-89
2022/09/25 07:33:23;;;;;;;12.40;11.20;;;19.00;61.50;;;;;;5055493;28;20467;-88
2022/09/25 07:35:51;;;;;;;13.83;11.60;;;19.00;61.30;;;;;;5021255;28;20515;-88
2022/09/25 07:38:18;;;;;;;19.13;12.50;;;19.00;61.40;;;;;;5035889;28;20472;-91
2022/09/25 07:40:45;;;;;;;16.07;11.83;;;19.00;61.30;;;;;;5035036;28;20456;-88
2022/09/25 07:43:12;;;;;;;17.70;12.57;;;19.10;61.80;;;;;;5027082;28;21312;-90
2022/09/25 07:45:41;;;;;;;14.97;11.53;;;19.10;61.60;;;;;;5042007;28;20543;-89
2022/09/25 07:48:08;;;;;;;18.90;12.97;;;19.20;61.50;;;;;;5057275;28;20484;-90
2022/09/25 07:50:35;;;;;;;12.83;11.43;;;19.20;61.60;;;;;;5038502;28;20476;-89
2022/09/25 07:53:02;;;;;;;16.53;11.17;;;19.20;61.50;;;;;;5033577;28;20478;-90
2022/09/25 07:55:29;;;;;;;16.13;13.37;;;19.20;61.10;;;;;;5028668;28;20457;-88
2022/09/25 07:57:57;;;;;;;18.73;14.17;;;19.20;60.90;;;;;;5057614;28;20445;-88
2022/09/25 08:00:24;;;;;;;13.70;11.00;;;19.10;60.50;;;;;;5026930;28;20458;-90
2022/09/25 08:02:59;;;;;;;14.70;12.30;;;19.00;60.70;;;;;;5039018;28;20478;-88
2022/09/25 08:05:27;;;;;;;18.53;14.30;;;19.00;60.80;;;;;;5023467;28;20448;-88
2022/09/25 08:07:55;;;;;;;16.40;13.90;;;19.00;61.00;;;;;;5020114;28;20465;-88
2022/09/25 08:10:22;;;;;;;25.73;19.07;;;19.10;61.20;;;;;;5021509;28;20445;-88
2022/09/25 08:12:49;;;;;;;21.53;14.60;;;19.00;60.90;;;;;;5036002;28;20504;-89
2022/09/25 08:15:16;;;;;;;19.10;13.77;;;19.00;60.90;;;;;;5054058;28;20449;-89
2022/09/25 08:17:43;;;;;;;15.90;11.10;;;19.00;60.30;;;;;;5041214;28;20445;-91
2022/09/25 08:20:12;;;;;;;11.40;10.20;;;18.90;60.00;;;;;;5047564;28;20960;-88
2022/09/25 08:22:39;;;;;;;12.40;10.67;;;18.80;59.80;;;;;;5013135;28;20468;-88
2022/09/25 08:25:06;;;;;;;17.43;13.07;;;18.80;61.00;;;;;;5024396;28;20569;-91
2022/09/25 08:27:39;;;;;;;17.47;11.77;;;18.90;61.60;;;;;;5039459;28;21137;-91
2022/09/25 08:30:08;;;;;;;15.20;11.60;;;18.90;61.20;;;;;;5053822;28;20441;-89
2022/09/25 08:32:36;;;;;;;12.83;10.80;;;18.90;61.10;;;;;;5023427;28;20474;-89
2022/09/25 08:35:03;;;;;;;12.23;10.93;;;18.90;61.40;;;;;;5009918;28;20457;-88
2022/09/25 08:37:31;;;;;;;15.73;12.23;;;18.90;60.90;;;;;;5052488;28;20667;-90
2022/09/25 08:39:59;;;;;;;15.80;11.73;;;19.00;61.10;;;;;;5012479;28;20494;-90
2022/09/25 08:42:31;;;;;;;13.13;11.80;;;19.00;61.40;;;;;;5040335;28;20463;-90
2022/09/25 08:50:36;;;;;;;14.40;11.60;;;19.00;61.00;;;;;;5023288;28;20436;-89
2022/09/25 08:53:08;;;;;;;15.00;13.10;;;19.00;61.30;;;;;;5012469;28;20472;-89
2022/09/25 08:58:27;;;;;;;18.43;14.90;;;19.10;61.20;;;;;;5029434;28;20464;-88
2022/09/25 09:00:58;;;;;;;17.30;13.57;;;19.10;61.00;;;;;;5024189;28;20441;-89
2022/09/25 09:03:29;;;;;;;15.73;12.80;;;19.20;61.40;;;;;;5035679;28;20473;-89
2022/09/25 09:06:01;;;;;;;12.70;10.67;;;19.20;61.20;;;;;;5036457;28;20688;-89
2022/09/25 09:08:32;;;;;;;13.20;10.70;;;19.10;60.90;;;;;;5028565;28;20540;-90
2022/09/25 09:11:05;;;;;;;17.80;14.23;;;19.10;60.70;;;;;;5026117;28;20876;-89
2022/09/25 09:13:39;;;;;;;14.40;11.87;;;19.10;60.60;;;;;;5021963;28;20460;-88
2022/09/25 09:16:09;;;;;;;14.47;12.00;;;19.00;60.40;;;;;;5027464;28;20970;-89
2022/09/25 09:18:38;;;;;;;16.03;14.30;;;19.10;60.80;;;;;;5056163;28;20442;-88
2022/09/25 09:21:12;;;;;;;17.20;13.23;;;19.10;60.70;;;;;;5020521;28;20448;-88
2022/09/25 09:23:59;;;;;;;15.40;10.70;;;19.10;61.00;;;;;;5055695;28;20481;-88
2022/09/25 09:26:36;;;;;;;11.30;9.87;;;19.00;61.10;;;;;;5052135;28;20449;-87
2022/09/25 09:29:24;;;;;;;16.37;11.00;;;19.00;60.40;;;;;;5015486;28;21181;-87
2022/09/25 09:32:02;;;;;;;15.20;11.87;;;18.80;61.20;;;;;;5036802;28;20449;-88
2022/09/25 09:34:44;;;;;;;15.80;12.63;;;18.50;62.10;;;;;;5055675;28;21010;-87
2022/09/25 09:37:18;;;;;;;15.93;13.60;;;18.40;62.70;;;;;;5034832;28;20442;-87
2022/09/25 09:40:08;;;;;;;15.23;12.40;;;18.50;63.10;;;;;;5044239;28;20480;-87
2022/09/25 09:42:46;;;;;;;18.10;11.60;;;18.60;63.40;;;;;;5038128;28;20823;-86
2022/09/25 09:45:20;;;;;;;17.43;11.30;;;18.70;62.60;;;;;;5026408;28;20457;-88
2022/09/25 09:47:56;;;;;;;14.50;13.00;;;18.80;62.80;;;;;;5054851;28;20539;-88
2022/09/25 09:50:31;;;;;;;14.40;12.10;;;18.70;62.90;;;;;;5040177;28;20528;-88
2022/09/25 09:53:03;;;;;;;15.57;12.27;;;18.70;63.50;;;;;;5043726;28;20468;-91
2022/09/25 09:55:38;;;;;;;13.13;11.30;;;18.60;63.20;;;;;;5021489;28;20515;-88
2022/09/25 09:58:13;;;;;;;25.73;16.00;;;18.80;63.20;;;;;;5053303;28;20464;-89
2022/09/25 10:00:41;;;;;;;19.23;14.87;;;18.90;63.20;;;;;;5038282;28;20528;-88
2022/09/25 10:03:14;;;;;;;15.17;12.50;;;18.90;63.50;;;;;;5042945;28;20465;-88
2022/09/25 10:05:45;;;;;;;14.63;12.30;;;18.90;62.50;;;;;;5038283;28;20456;-88
2022/09/25 10:08:12;;;;;;;13.40;10.00;;;19.00;62.70;;;;;;5050916;28;20440;-87
2022/09/25 10:10:42;;;;;;;13.10;10.20;;;18.90;62.70;;;;;;5034687;28;21191;-87
2022/09/25 10:13:14;;;;;;;13.53;10.80;;;19.00;62.40;;;;;;5027370;28;20465;-90
2022/09/25 10:15:47;;;;;;;13.70;11.50;;;19.00;62.40;;;;;;5056797;28;20433;-90
2022/09/25 10:18:16;;;;;;;15.33;11.60;;;18.80;62.90;;;;;;5041449;28;20955;-87
2022/09/25 10:20:47;;;;;;;16.27;12.10;;;18.80;62.80;;;;;;5020887;28;20449;-91
2022/09/25 10:23:30;;;;;;;14.13;11.33;;;19.00;62.50;;;;;;5055374;28;20531;-88
2022/09/25 10:25:58;;;;;;;16.07;11.40;;;19.20;62.40;;;;;;5053796;28;20963;-87
2022/09/25 10:28:28;;;;;;;13.97;11.93;;;19.30;62.00;;;;;;5037234;28;20463;-87
2022/09/25 10:30:57;;;;;;;12.70;11.40;;;19.40;61.60;;;;;;5044029;28;20445;-87
2022/09/25 10:33:26;;;;;;;14.87;12.80;;;19.30;61.20;;;;;;5035445;28;20548;-90
2022/09/25 10:35:55;;;;;;;12.10;10.80;;;19.30;61.80;;;;;;5009452;28;20460;-88
2022/09/25 10:38:37;;;;;;;15.63;11.63;;;19.10;61.70;;;;;;5039992;28;20442;-87
2022/09/25 10:41:09;;;;;;;14.30;12.00;;;19.00;62.40;;;;;;5020990;28;20448;-90
2022/09/25 10:43:50;;;;;;;13.33;11.90;;;19.10;62.60;;;;;;5043086;28;21084;-90
2022/09/25 10:50:09;;;;;;;16.07;12.13;;;19.30;62.90;;;;;;5051686;28;20953;-88
2022/09/25 10:52:18;;;;;;;12.77;11.10;;;19.40;62.50;;;;;;4945823;28;20446;-88
2022/09/25 10:54:45;;;;;;;13.87;12.40;;;19.30;62.10;;;;;;5001030;28;20457;-88
2022/09/25 10:57:27;;;;;;;11.43;10.23;;;19.30;62.60;;;;;;5038674;28;20519;-88
2022/09/25 10:59:54;;;;;;;37.63;12.40;;;19.10;62.00;;;;;;5031828;28;20437;-89
2022/09/25 11:02:30;;;;;;;14.90;12.23;;;19.10;62.90;;;;;;5022779;28;20445;-89
2022/09/25 11:04:57;;;;;;;12.93;11.53;;;19.10;63.40;;;;;;5035671;28;20460;-88
2022/09/25 11:07:26;;;;;;;15.10;12.30;;;19.30;63.10;;;;;;5043711;28;20544;-89
2022/09/25 11:09:54;;;;;;;12.73;11.40;;;19.20;63.20;;;;;;5033620;28;20495;-91
2022/09/25 11:12:25;;;;;;;16.53;14.70;;;19.20;63.10;;;;;;5027123;28;21047;-89
2022/09/25 11:14:57;;;;;;;12.10;9.50;;;19.20;63.20;;;;;;5027696;28;20474;-90
2022/09/25 11:17:33;;;;;;;15.20;13.77;;;19.10;62.80;;;;;;5052429;28;20986;-88
2022/09/25 11:20:19;;;;;;;14.13;10.73;;;19.20;63.60;;;;;;5009893;28;20452;-91
2022/09/25 11:22:52;;;;;;;16.67;13.70;;;19.20;62.90;;;;;;5045739;28;20471;-87
2022/09/25 11:25:24;;;;;;;19.30;15.50;;;19.10;62.90;;;;;;5034695;28;20948;-88
2022/09/25 11:27:57;;;;;;;14.57;12.30;;;19.30;63.30;;;;;;5029078;28;20455;-90
2022/09/25 11:30:27;;;;;;;16.03;12.20;;;19.30;62.60;;;;;;5054278;28;20459;-87
2022/09/25 11:33:03;;;;;;;12.77;9.90;;;19.20;62.80;;;;;;5040555;28;20491;-92
2022/09/25 11:35:45;;;;;;;27.07;17.63;;;19.20;63.40;;;;;;5011935;28;20448;-90
2022/09/25 11:41:11;;;;;;;21.90;17.33;;;19.30;63.00;;;;;;5012820;28;20960;-91
2022/09/25 11:41:21;;;;;;;21.30;15.40;;;19.40;63.10;;;;;;5030232;28;20485;-88
2022/09/25 11:44:13;;;;;;;23.13;16.70;;;19.50;62.10;;;;;;5013404;28;20464;-90
2022/09/25 11:46:49;;;;;;;9.43;8.23;;;19.50;62.40;;;;;;5016946;28;20452;-90
2022/09/25 11:49:21;;;;;;;12.00;9.90;;;19.30;62.20;;;;;;5045487;28;20465;-88
2022/09/25 11:52:28;;;;;;;19.17;13.57;;;19.20;62.80;;;;;;5051635;28;20456;-90
2022/09/25 11:55:33;;;;;;;11.23;9.77;;;19.40;63.70;;;;;;5052030;28;20587;-90
2022/09/25 11:58:14;;;;;;;9.00;7.70;;;19.40;63.10;;;;;;5051877;28;20968;-89
2022/09/25 12:00:50;;;;;;;9.93;8.90;;;19.20;62.40;;;;;;5051909;28;20798;-88
2022/09/25 12:03:32;;;;;;;8.70;7.80;;;19.10;62.70;;;;;;5023776;28;21039;-87
2022/09/25 12:06:22;;;;;;;8.23;7.33;;;19.20;62.10;;;;;;5027402;28;20962;-89
2022/09/25 12:09:05;;;;;;;8.17;7.40;;;19.00;61.80;;;;;;5028047;28;21315;-89
2022/09/25 12:11:44;;;;;;;8.90;7.50;;;19.20;61.50;;;;;;5056756;28;20563;-88
2022/09/25 12:14:16;;;;;;;7.50;6.80;;;19.30;61.50;;;;;;5026530;28;20564;-88
2022/09/25 12:16:53;;;;;;;8.60;6.97;;;19.30;61.50;;;;;;5031310;28;20539;-89
2022/09/25 12:19:33;;;;;;;8.60;7.40;;;19.40;60.80;;;;;;5039563;28;20471;-89
2022/09/25 12:22:07;;;;;;;16.33;11.20;;;19.60;60.80;;;;;;5036633;28;20928;-91
2022/09/25 12:24:47;;;;;;;48.93;33.83;;;19.70;61.20;;;;;;5020385;28;21020;-88
2022/09/25 12:27:21;;;;;;;9.27;8.27;;;19.70;60.90;;;;;;5029699;28;20455;-90
2022/09/25 12:30:10;;;;;;;156.90;72.10;;;19.80;61.90;;;;;;5029372;28;20478;-88
2022/09/25 12:32:56;;;;;;;15.23;12.03;;;19.90;60.30;;;;;;5037906;28;20508;-88
2022/09/25 12:35:35;;;;;;;7.80;6.50;;;20.00;60.60;;;;;;5024859;28;20446;-88
2022/09/25 12:38:11;;;;;;;8.30;6.30;;;20.20;59.70;;;;;;5023640;28;20445;-91
2022/09/25 12:40:44;;;;;;;7.87;7.07;;;20.20;59.80;;;;;;5058471;28;22767;-91
2022/09/25 12:43:17;;;;;;;9.63;7.47;;;20.20;59.50;;;;;;5039835;28;20508;-91
2022/09/25 12:45:49;;;;;;;11.67;8.93;;;20.30;59.20;;;;;;5042861;28;20446;-86
2022/09/25 12:48:23;;;;;;;10.30;7.77;;;20.20;58.80;;;;;;5040100;28;21225;-88
2022/09/25 12:50:55;;;;;;;9.33;8.10;;;20.30;59.70;;;;;;5012141;28;20460;-88
2022/09/25 12:53:28;;;;;;;8.07;6.50;;;20.40;59.20;;;;;;5033907;28;20472;-89
2022/09/25 12:56:02;;;;;;;7.37;6.20;;;20.50;59.60;;;;;;5056819;28;20952;-89
2022/09/25 12:58:46;;;;;;;7.73;7.00;;;20.60;58.70;;;;;;5039004;28;20446;-91
2022/09/25 13:01:19;;;;;;;11.07;8.00;;;20.70;58.50;;;;;;5022576;28;20476;-89
2022/09/25 13:03:55;;;;;;;7.47;6.30;;;20.60;58.70;;;;;;5057203;28;20472;-91
2022/09/25 13:06:26;;;;;;;7.80;7.00;;;20.50;58.60;;;;;;5025046;28;20451;-89
2022/09/25 13:08:59;;;;;;;9.37;7.10;;;20.70;58.50;;;;;;5023309;28;20447;-89
2022/09/25 13:11:37;;;;;;;6.20;5.60;;;20.80;58.40;;;;;;5006790;28;20906;-90
2022/09/25 13:14:09;;;;;;;7.20;6.50;;;20.70;58.20;;;;;;5007166;28;20508;-88